Flight Track Log - Related Links

Times and Time Zones

All times are in EDT time to prevent confusion due to time zone crossing. See the GTI192 flight status page for this flight to view local times or setup timezone preferences in your user account.

Time Position Orientation Groundspeed Altitude Reporting Facility
EDT Latitude Longitude Course Direction KTS MPH feet Rate Location/Type
Tue 12:39:48 AM 41.1850 -84.0028 193° South 407 468 13,900  Level Indianapolis Center
Tue 12:40:48 AM 41.0717 -84.0417 195° South 417 480 13,900  Level Indianapolis Center
Tue 12:41:49 AM 40.9617 -84.0789 194° South 416 479 13,900  Level Indianapolis Center
Tue 12:42:49 AM 40.8483 -84.1167 194° South 417 480 13,900  Level Indianapolis Center
Tue 12:43:50 AM 40.7342 -84.1542 194° South 419 482 13,900  Level Indianapolis Center
Tue 12:44:50 AM 40.6208 -84.1922 194° South 419 482 13,900 50 Level Indianapolis Center
Tue 12:45:00 AM 41.1586 -83.9458 193° South  Level FlightAware Approximate
Tue 12:45:51 AM 40.5067 -84.2289 194° South 419 482 14,000  Level Indianapolis Center
Tue 12:46:51 AM 40.3931 -84.2661 194° South 419 482 14,000  Level Indianapolis Center
Tue 12:47:51 AM 40.2781 -84.3039 194° South 423 487 14,000  Level Indianapolis Center
Tue 12:48:52 AM 40.1636 -84.3400 194° South 421 484 14,000  Level Indianapolis Center
Tue 12:49:52 AM 40.0508 -84.3783 195° South 419 482 14,000  Level Indianapolis Center
Tue 12:50:53 AM 39.9364 -84.4142 194° South 421 484 14,000  Level Indianapolis Center
Tue 12:51:53 AM 39.8225 -84.4503 194° South 420 483 14,000 -600 Level Indianapolis Center
Tue 12:52:53 AM 39.7092 -84.4858 194° South 417 480 12,800 -1,488 Descending Indianapolis Center
Tue 12:53:54 AM 39.6019 -84.5197 194° South 404 465 11,000 -1,041 Descending Indianapolis Center
Tue 12:54:54 AM 39.4936 -84.5411 189° South 394 453 10,700 -397 Descending Indianapolis Center
Tue 12:55:55 AM 39.3950 -84.5331 176° South 363 418 10,200 -744 Descending Indianapolis Center
Tue 12:56:55 AM 39.3089 -84.5283 178° South 319 367 9,200 -600 Descending Indianapolis Center
Tue 12:57:55 AM 39.2311 -84.5258 179° South 290 334 9,000 -545 Descending Indianapolis Center
Tue 12:58:56 AM 39.1686 -84.5272 181° South 232 267 8,100 -893 Descending Indianapolis Center
Tue 12:59:56 AM 39.1536 -84.5961 254° West 209 241 7,200 -1,020 Descending Indianapolis Center
Tue 01:00:36 AM 39.1500 -84.6500 265° West 207 238 6,400 -727 Descending Cincinnati TRACON
Tue 01:01:35 AM 39.1500 -84.7167 270° West 200 230 6,000 -202 Descending Cincinnati TRACON
Tue 01:02:35 AM 39.1500 -84.7833 270° West 198 228 6,000  Level Cincinnati TRACON
Tue 01:03:35 AM 39.1500 -84.8667 270° West 196 226 6,000  Level Cincinnati TRACON
Tue 01:03:58 AM 39.1492 -84.8847 267° West 196 226 6,000 72 Level Indianapolis Center
Tue 01:04:58 AM 39.1472 -84.9467 268° West 189 217 6,100 -300 Climbing Indianapolis Center
Tue 01:05:58 AM 39.1458 -85.0133 268° West 186 214 5,400 -545 Descending Indianapolis Center
Tue 01:06:59 AM 39.1486 -85.0778 273° West 181 208 5,000 -198 Descending Indianapolis Center
Tue 01:07:59 AM 39.1453 -85.1431 266° West 181 208 5,000  Level Indianapolis Center
Tue 01:08:59 AM 39.0936 -85.1489 185° South 188 216 5,000  Level Indianapolis Center
Tue 01:10:00 AM 39.0636 -85.1014 129° Southeast 187 215 5,000  Level Indianapolis Center
Tue 01:11:00 AM 39.0439 -85.0417 113° Southeast 183 211 5,000 -300 Level Indianapolis Center
Tue 01:12:00 AM 39.0458 -84.9753 88° East 185 213 4,400 -446 Descending Indianapolis Center
Tue 01:13:01 AM 39.0456 -84.9106 90° East 180 207 4,100 -611 Descending Indianapolis Center
Tue 01:13:48 AM 39.0500 -84.8500 85° East 184 212 3,300 -1,010 Descending Cincinnati TRACON
Tue 01:14:42 AM 39.0500 -84.8000 90° East 179 206 2,400 -1,000 Descending Cincinnati TRACON

Login

Don't have an account? Register now (free) for customized features, flight alerts, and more!